Time;durP1;ratioP1;P1;durP2;ratioP2;P2;SDS_P1;SDS_P2;PMS_P1;PMS_P2;Temp;Humidity;BMP_temperature;BMP_pressure;BME280_temperature;BME280_humidity;BME280_pressure;Samples;Min_cycle;Max_cycle;Signal;HPM_P1;HPM_P2
2022/08/17 00:05:08;;;;;;;24.83;18.00;;;19.50;99.90;;;;;;5055256;28;20981;-73
2022/08/17 00:07:34;;;;;;;22.13;19.73;;;19.50;99.90;;;;;;5054843;28;20441;-73
2022/08/17 00:10:03;;;;;;;23.90;19.83;;;19.50;99.90;;;;;;5054760;28;20429;-77
2022/08/17 00:12:40;;;;;;;24.77;20.63;;;19.40;99.90;;;;;;5056455;28;20812;-73
2022/08/17 00:15:15;;;;;;;27.17;20.00;;;19.40;99.90;;;;;;5055259;28;20477;-78
2022/08/17 00:17:46;;;;;;;30.90;22.40;;;19.40;99.90;;;;;;5054305;28;20520;-79
2022/08/17 00:20:31;;;;;;;31.40;23.33;;;19.30;99.90;;;;;;5055108;28;20482;-79
2022/08/17 00:23:11;;;;;;;32.50;22.87;;;19.30;99.90;;;;;;5056435;28;20901;-73
2022/08/17 00:25:39;;;;;;;25.57;21.90;;;19.30;99.90;;;;;;5054651;28;20416;-73
2022/08/17 00:28:05;;;;;;;27.87;22.70;;;19.30;99.90;;;;;;5054809;28;20432;-73
2022/08/17 00:30:31;;;;;;;30.20;24.77;;;19.30;99.90;;;;;;5055064;28;20421;-73
2022/08/17 00:32:57;;;;;;;32.40;23.03;;;19.30;99.90;;;;;;5056111;28;20436;-79
2022/08/17 00:35:24;;;;;;;28.83;22.07;;;19.30;99.90;;;;;;5056014;28;20475;-79
2022/08/17 00:37:51;;;;;;;28.67;23.30;;;19.30;99.90;;;;;;5054096;28;20430;-79
2022/08/17 00:40:20;;;;;;;28.83;23.17;;;19.30;99.90;;;;;;5054861;28;20416;-79
2022/08/17 00:42:49;;;;;;;27.87;22.97;;;19.30;99.90;;;;;;5054701;28;20770;-78
2022/08/17 00:45:20;;;;;;;24.33;21.63;;;19.30;99.90;;;;;;5054292;28;20425;-78
2022/08/17 00:47:47;;;;;;;24.20;19.73;;;19.20;99.90;;;;;;5055060;28;20421;-73
2022/08/17 00:50:30;;;;;;;27.67;21.23;;;19.10;99.90;;;;;;5055893;28;20413;-72
2022/08/17 00:52:57;;;;;;;22.10;17.33;;;19.10;99.90;;;;;;5054509;28;20766;-73
2022/08/17 01:02:38;;;;;;;30.33;20.17;;;18.80;99.90;;;;;;5053876;28;20434;-78
2022/08/17 01:05:37;;;;;;;;;;;;;;;;;;;;;
2022/08/17 01:08:07;;;;;;;24.83;19.30;;;18.80;99.90;;;;;;5052491;28;20433;-74
2022/08/17 01:10:48;;;;;;;26.80;19.27;;;18.80;99.90;;;;;;5086244;28;20443;-73
2022/08/17 01:13:16;;;;;;;27.93;19.50;;;18.70;99.90;;;;;;5095553;28;20428;-78
2022/08/17 01:15:49;;;;;;;26.10;21.53;;;18.70;99.90;;;;;;5095152;28;20986;-79
2022/08/17 01:18:15;;;;;;;27.73;21.50;;;18.60;99.90;;;;;;5094736;28;20420;-78
2022/08/17 01:20:49;;;;;;;27.83;20.80;;;18.70;99.90;;;;;;5095331;28;20410;-79
2022/08/17 01:23:19;;;;;;;25.00;20.10;;;18.60;99.90;;;;;;5094924;28;20399;-79
2022/08/17 01:25:48;;;;;;;25.70;20.97;;;18.60;99.90;;;;;;5094928;28;20399;-78
2022/08/17 01:28:26;;;;;;;26.67;20.77;;;18.60;99.90;;;;;;5094581;28;20969;-78
2022/08/17 01:31:00;;;;;;;26.63;18.50;;;18.60;99.90;;;;;;5095036;28;20998;-79
2022/08/17 01:36:54;;;;;;;23.73;19.80;;;18.50;99.90;;;;;;5072922;28;20562;-73
2022/08/17 01:39:29;;;;;;;22.43;19.47;;;18.50;99.90;;;;;;5095065;28;20424;-73
2022/08/17 01:42:12;;;;;;;26.10;20.80;;;18.50;99.90;;;;;;5094633;28;20934;-73
2022/08/17 01:44:38;;;;;;;27.30;22.23;;;18.40;99.90;;;;;;5095003;28;20431;-73
2022/08/17 01:47:07;;;;;;;23.53;18.60;;;18.40;99.90;;;;;;5094510;28;20446;-79
2022/08/17 01:49:33;;;;;;;28.17;22.30;;;18.40;99.90;;;;;;5076455;28;20494;-78
2022/08/17 01:52:08;;;;;;;24.53;19.30;;;18.40;99.90;;;;;;5094267;28;20423;-73
2022/08/17 01:54:36;;;;;;;26.07;20.40;;;18.40;99.90;;;;;;5094637;28;20956;-79
2022/08/17 01:57:03;;;;;;;27.43;20.33;;;18.30;99.90;;;;;;5094178;28;20831;-78
2022/08/17 01:59:29;;;;;;;22.40;17.67;;;18.30;99.90;;;;;;5094442;28;20831;-74
2022/08/17 02:02:07;;;;;;;;;;;;;;;;;;;;;
2022/08/17 02:04:39;;;;;;;22.60;19.97;;;18.20;99.90;;;;;;5094223;28;20169;-79
2022/08/17 02:07:05;;;;;;;27.60;20.10;;;18.10;99.90;;;;;;5093947;28;20404;-73
2022/08/17 02:09:37;;;;;;;25.00;19.50;;;18.10;99.90;;;;;;5094465;28;20423;-72
2022/08/17 02:12:06;;;;;;;27.67;21.43;;;18.10;99.90;;;;;;5094404;28;20441;-73
2022/08/17 02:14:32;;;;;;;31.03;20.77;;;18.10;99.90;;;;;;5076365;28;20400;-73
2022/08/17 02:16:58;;;;;;;29.17;21.07;;;18.10;99.90;;;;;;5093627;28;20403;-79
2022/08/17 02:19:25;;;;;;;27.27;21.83;;;18.10;99.90;;;;;;5093841;28;20428;-73
2022/08/17 02:22:01;;;;;;;28.23;21.00;;;18.10;99.90;;;;;;5094263;28;20457;-79
2022/08/17 02:24:32;;;;;;;23.40;18.67;;;18.10;99.90;;;;;;5094169;28;20443;-73
2022/08/17 02:26:58;;;;;;;27.50;19.80;;;18.00;99.90;;;;;;5092705;28;20442;-78
2022/08/17 02:29:25;;;;;;;27.07;20.60;;;18.00;99.90;;;;;;5094071;28;20427;-79
2022/08/17 02:31:57;;;;;;;28.50;21.00;;;18.00;99.90;;;;;;5094074;28;20257;-73
2022/08/17 02:41:12;;;;;;;31.83;22.30;;;18.10;99.90;;;;;;4992595;28;20978;-73
2022/08/17 02:44:17;;;;;;;31.60;23.90;;;18.10;99.90;;;;;;4992401;28;20494;-73
2022/08/17 02:46:56;;;;;;;30.97;22.77;;;18.10;99.90;;;;;;4991655;28;20412;-78
2022/08/17 02:49:35;;;;;;;30.73;22.80;;;18.10;99.90;;;;;;5078198;28;20459;-73
2022/08/17 02:52:18;;;;;;;29.83;22.63;;;18.10;99.90;;;;;;5075918;28;20474;-78
2022/08/17 02:55:23;;;;;;;30.57;22.60;;;18.20;99.90;;;;;;5093221;28;20449;-73
2022/08/17 02:57:50;;;;;;;27.73;22.97;;;18.20;99.90;;;;;;5092871;28;20434;-73
2022/08/17 03:00:52;;;;;;;30.00;21.70;;;18.20;99.90;;;;;;5093682;28;20895;-78
2022/08/17 03:03:20;;;;;;;23.60;19.10;;;18.20;99.90;;;;;;5075463;28;20441;-73
2022/08/17 03:05:50;;;;;;;25.20;19.00;;;18.10;99.90;;;;;;5093531;28;20412;-78
2022/08/17 03:08:27;;;;;;;22.83;19.30;;;18.00;99.90;;;;;;5092868;28;20454;-73
2022/08/17 03:10:53;;;;;;;22.93;18.10;;;17.90;99.90;;;;;;5093431;28;20424;-78
2022/08/17 03:13:19;;;;;;;20.70;16.50;;;17.90;99.90;;;;;;5093157;28;20414;-73
2022/08/17 03:15:47;;;;;;;23.73;18.13;;;17.80;99.90;;;;;;5093319;28;21045;-80
2022/08/17 03:18:15;;;;;;;20.70;17.97;;;17.70;99.90;;;;;;5092870;28;20427;-79
2022/08/17 03:20:41;;;;;;;25.93;19.33;;;17.70;99.90;;;;;;5093398;28;20403;-79
2022/08/17 03:23:08;;;;;;;22.33;18.03;;;17.70;99.90;;;;;;5093367;28;20443;-79
2022/08/17 03:25:53;;;;;;;22.67;19.30;;;17.70;99.90;;;;;;5093271;28;20408;-73
2022/08/17 03:28:20;;;;;;;18.83;16.63;;;17.70;99.90;;;;;;5092781;28;20424;-72
2022/08/17 03:30:55;;;;;;;29.20;20.20;;;17.70;99.90;;;;;;5074723;28;20411;-73
2022/08/17 03:33:42;;;;;;;24.77;19.53;;;17.70;99.90;;;;;;5093145;28;20399;-72
2022/08/17 03:36:27;;;;;;;24.97;19.70;;;17.70;99.90;;;;;;5092048;28;20458;-73
2022/08/17 03:42:40;;;;;;;24.53;18.77;;;17.70;99.90;;;;;;5097961;28;20384;-73
2022/08/17 03:57:00;;;;;;;36.27;23.30;;;17.70;99.90;;;;;;5096340;28;20815;-79
2022/08/17 04:02:50;;;;;;;46.43;25.90;;;17.70;99.90;;;;;;5096949;28;20375;-73
2022/08/17 04:05:16;;;;;;;46.10;29.07;;;17.80;99.90;;;;;;5096693;28;20411;-74
2022/08/17 04:07:43;;;;;;;50.47;29.57;;;17.80;99.90;;;;;;5095856;28;20427;-79
2022/08/17 04:10:12;;;;;;;48.37;30.40;;;17.80;99.90;;;;;;5096781;28;20433;-78
2022/08/17 04:12:49;;;;;;;52.50;30.07;;;17.80;99.90;;;;;;5096750;28;20460;-73
2022/08/17 04:15:17;;;;;;;37.80;24.13;;;17.80;99.90;;;;;;5096624;28;20447;-79
2022/08/17 04:17:45;;;;;;;42.30;27.57;;;17.80;99.90;;;;;;5095840;28;20419;-78
2022/08/17 04:20:13;;;;;;;52.47;29.10;;;17.70;99.90;;;;;;5096736;28;20503;-73
2022/08/17 04:22:56;;;;;;;36.03;22.87;;;17.50;99.90;;;;;;5096515;28;20434;-72
2022/08/17 04:25:28;;;;;;;33.07;23.57;;;17.40;99.90;;;;;;5077861;28;20502;-73
2022/08/17 04:27:55;;;;;;;35.53;24.67;;;17.30;99.90;;;;;;5095609;28;20423;-73
2022/08/17 04:30:27;;;;;;;35.20;24.37;;;17.20;99.90;;;;;;5096690;28;20891;-72
2022/08/17 04:33:07;;;;;;;32.93;25.47;;;17.30;99.90;;;;;;5078444;28;20514;-72
2022/08/17 04:35:38;;;;;;;34.20;24.77;;;17.30;99.90;;;;;;5077971;28;20457;-79
2022/08/17 04:38:06;;;;;;;31.10;23.57;;;17.40;99.90;;;;;;5095511;28;20426;-79
2022/08/17 04:43:20;;;;;;;30.23;24.13;;;17.40;99.90;;;;;;5096299;28;20453;-73
2022/08/17 04:45:52;;;;;;;31.83;25.63;;;17.30;99.90;;;;;;5095818;28;20396;-77
2022/08/17 04:48:22;;;;;;;31.90;23.80;;;17.30;99.90;;;;;;5095477;28;20435;-73
2022/08/17 04:50:52;;;;;;;32.00;24.10;;;17.40;99.90;;;;;;5095453;28;20872;-73
2022/08/17 04:53:20;;;;;;;31.57;23.93;;;17.50;99.90;;;;;;5096100;28;20400;-75
2022/08/17 04:56:12;;;;;;;33.57;24.23;;;17.50;1.00;;;;;;5095974;28;20590;-77
2022/08/17 05:02:24;;;;;;;29.87;22.60;;;17.60;1.00;;;;;;5095301;28;20394;-76
2022/08/17 05:04:50;;;;;;;33.27;24.50;;;17.70;1.00;;;;;;5095959;28;20396;-77
2022/08/17 05:07:16;;;;;;;27.80;22.30;;;17.70;1.00;;;;;;5096661;28;20422;-75
2022/08/17 05:09:45;;;;;;;27.63;19.77;;;17.80;1.00;;;;;;5096525;28;20232;-78
2022/08/17 05:13:06;;;;;;;;;;;;;;;;;;;;;
2022/08/17 05:26:02;;;;;;;23.07;18.97;;;18.00;1.00;;;;;;4956151;28;20386;-75
2022/08/17 05:28:28;;;;;;;27.30;21.00;;;18.00;1.00;;;;;;4920341;29;20533;-75
2022/08/17 05:30:57;;;;;;;27.43;21.30;;;18.00;1.00;;;;;;5083391;28;20416;-78
2022/08/17 05:33:26;;;;;;;27.60;21.80;;;17.90;1.00;;;;;;5095195;28;20410;-78
2022/08/17 05:35:55;;;;;;;23.60;19.00;;;18.00;1.00;;;;;;5076677;28;20447;-78
2022/08/17 05:38:26;;;;;;;22.90;19.10;;;18.00;1.00;;;;;;5094006;28;20511;-73
2022/08/17 05:40:53;;;;;;;26.10;20.43;;;18.10;1.00;;;;;;5095008;28;20414;-72
2022/08/17 05:43:24;;;;;;;28.23;20.33;;;18.20;1.00;;;;;;5095232;28;20449;-72
2022/08/17 05:46:02;;;;;;;27.97;22.00;;;18.30;1.00;;;;;;5095076;28;20404;-78
2022/08/17 05:48:35;;;;;;;27.27;21.23;;;18.40;1.00;;;;;;5094683;28;20431;-78
2022/08/17 05:51:19;;;;;;;25.67;20.20;;;18.60;1.00;;;;;;5095033;28;20437;-72
2022/08/17 05:54:07;;;;;;;33.90;20.33;;;18.70;1.00;;;;;;5094315;28;20400;-72
2022/08/17 05:57:20;;;;;;;28.37;20.67;;;18.70;1.00;;;;;;5094071;28;20547;-79
2022/08/17 06:00:13;;;;;;;32.40;23.87;;;18.90;1.00;;;;;;5094882;28;20392;-78
2022/08/17 06:02:57;;;;;;;33.73;22.70;;;19.00;1.00;;;;;;5075725;28;20912;-72
2022/08/17 06:05:39;;;;;;;30.00;23.30;;;19.10;1.00;;;;;;5076392;28;20427;-78
2022/08/17 06:08:10;;;;;;;32.83;23.60;;;19.20;1.00;;;;;;5093922;28;20916;-78
2022/08/17 06:11:10;;;;;;;46.47;27.27;;;19.30;1.00;;;;;;5094141;28;20483;-78
2022/08/17 06:13:45;;;;;;;39.97;29.83;;;19.40;1.00;;;;;;5094060;28;20422;-78
2022/08/17 06:16:15;;;;;;;43.53;28.70;;;19.50;1.00;;;;;;5093635;28;20534;-72
2022/08/17 06:18:58;;;;;;;44.47;29.23;;;19.60;1.00;;;;;;5094136;28;20426;-72
2022/08/17 06:21:52;;;;;;;41.27;28.20;;;19.70;22.30;;;;;;5076348;28;20414;-78
2022/08/17 06:24:43;;;;;;;44.27;29.93;;;19.80;78.20;;;;;;5094345;28;20395;-73
2022/08/17 06:30:48;;;;;;;44.37;28.37;;;20.00;99.90;;;;;;5094256;28;21049;-73
2022/08/17 06:33:23;;;;;;;39.73;27.77;;;20.00;99.90;;;;;;5094121;28;20408;-72
2022/08/17 06:36:03;;;;;;;37.93;26.60;;;20.10;99.90;;;;;;5093825;28;20468;-78
2022/08/17 06:39:03;;;;;;;41.73;28.17;;;20.20;99.90;;;;;;5093775;28;20420;-73
2022/08/17 06:41:44;;;;;;;33.40;25.70;;;20.30;99.90;;;;;;5094251;28;20400;-79
2022/08/17 06:44:34;;;;;;;38.73;27.20;;;20.40;99.90;;;;;;5075855;28;20772;-72
2022/08/17 06:47:09;;;;;;;32.73;27.30;;;20.40;99.90;;;;;;5074480;28;20430;-78
2022/08/17 06:49:58;;;;;;;43.70;29.23;;;20.50;99.90;;;;;;5094200;28;20398;-78
2022/08/17 06:52:28;;;;;;;33.47;26.43;;;20.40;99.90;;;;;;5093732;28;20403;-79
2022/08/17 06:55:05;;;;;;;34.30;27.20;;;20.50;99.90;;;;;;5075393;28;20479;-72
2022/08/17 06:57:34;;;;;;;35.10;26.13;;;20.60;99.90;;;;;;5093076;28;20415;-72
2022/08/17 07:00:13;;;;;;;34.80;25.73;;;20.60;99.90;;;;;;5093928;28;20417;-72
2022/08/17 07:03:05;;;;;;;37.50;28.00;;;20.70;99.90;;;;;;5093652;28;20417;-73
2022/08/17 07:05:43;;;;;;;32.70;25.77;;;20.80;99.90;;;;;;5091838;28;20414;-73
2022/08/17 07:08:18;;;;;;;39.37;26.80;;;20.80;99.90;;;;;;5092924;28;20430;-73
2022/08/17 07:10:54;;;;;;;38.63;25.73;;;20.90;99.90;;;;;;5093525;28;20415;-79
2022/08/17 07:13:32;;;;;;;30.13;24.17;;;20.90;99.90;;;;;;5093223;28;20488;-79
2022/08/17 07:16:13;;;;;;;42.80;24.70;;;21.00;99.90;;;;;;5093333;28;20545;-73
2022/08/17 07:18:40;;;;;;;31.80;23.80;;;21.00;99.90;;;;;;5093511;28;20432;-78
2022/08/17 07:21:15;;;;;;;34.13;23.23;;;21.10;99.90;;;;;;5075245;28;20399;-78
2022/08/17 07:23:53;;;;;;;30.20;24.17;;;21.20;99.90;;;;;;5093216;28;20410;-72
2022/08/17 07:26:23;;;;;;;32.03;25.40;;;21.30;99.90;;;;;;5074317;28;20423;-78
2022/08/17 07:28:49;;;;;;;31.80;23.40;;;21.20;99.90;;;;;;5093352;28;20834;-78
2022/08/17 07:31:16;;;;;;;31.47;24.27;;;21.30;99.90;;;;;;5093229;28;20929;-72
2022/08/17 07:34:02;;;;;;;29.13;22.33;;;21.20;98.10;;;;;;5075177;28;20434;-72
2022/08/17 07:36:32;;;;;;;31.80;24.53;;;21.20;94.90;;;;;;5092524;28;20509;-72
2022/08/17 07:39:00;;;;;;;30.80;23.60;;;21.30;95.40;;;;;;5093075;28;20475;-72
2022/08/17 07:41:27;;;;;;;27.00;21.60;;;21.30;95.70;;;;;;5093168;28;20952;-78
2022/08/17 07:43:54;;;;;;;33.60;26.10;;;21.40;95.40;;;;;;5093051;28;20387;-75
2022/08/17 07:49:09;;;;;;;40.73;26.83;;;21.50;89.70;;;;;;5093113;28;20852;-76
2022/08/17 07:51:41;;;;;;;31.23;24.33;;;21.60;89.60;;;;;;5075204;28;20419;-76
2022/08/17 07:54:21;;;;;;;39.43;25.77;;;21.70;72.50;;;;;;5093281;28;20495;-76
2022/08/17 07:56:46;;;;;;;33.20;24.40;;;21.80;47.00;;;;;;5074023;28;20447;-74
2022/08/17 07:59:24;;;;;;;31.40;22.07;;;21.80;18.70;;;;;;5093770;28;20412;-75
2022/08/17 08:02:03;;;;;;;35.30;23.97;;;21.80;7.50;;;;;;5074787;28;20180;-74
2022/08/17 08:04:36;;;;;;;24.73;20.13;;;21.80;1.00;;;;;;5093116;28;20403;-74
2022/08/17 08:07:07;;;;;;;28.10;22.03;;;21.90;1.00;;;;;;5074373;28;20412;-74
2022/08/17 08:09:41;;;;;;;32.67;22.27;;;21.90;1.00;;;;;;5092869;28;20410;-74
2022/08/17 08:12:32;;;;;;;40.30;24.07;;;21.90;1.00;;;;;;5093019;28;20412;-76
2022/08/17 08:15:12;;;;;;;26.47;20.30;;;21.90;1.00;;;;;;5092982;28;20522;-75
2022/08/17 08:17:59;;;;;;;32.97;20.93;;;22.00;1.00;;;;;;5092119;28;20451;-76
2022/08/17 08:20:39;;;;;;;24.17;18.50;;;22.10;1.00;;;;;;5090726;28;20411;-75
2022/08/17 08:23:32;;;;;;;23.13;18.07;;;22.20;1.00;;;;;;5092931;28;20404;-77
2022/08/17 08:26:48;;;;;;;29.70;21.40;;;22.30;1.00;;;;;;5095453;28;20443;-77
2022/08/17 08:29:27;;;;;;;33.57;22.03;;;22.30;1.00;;;;;;4997883;28;20963;-75
2022/08/17 08:32:19;;;;;;;24.40;21.30;;;22.20;1.00;;;;;;5068570;28;20411;-77
2022/08/17 08:35:01;;;;;;;29.80;22.07;;;22.20;1.00;;;;;;5096470;28;20494;-72
2022/08/17 08:37:46;;;;;;;24.60;18.40;;;22.30;1.00;;;;;;5077268;28;20455;-77
2022/08/17 08:40:58;;;;;;;32.73;23.00;;;22.50;1.00;;;;;;5095889;28;20396;-77
2022/08/17 08:43:56;;;;;;;30.10;23.83;;;22.60;1.00;;;;;;5077993;28;20419;-78
2022/08/17 08:46:36;;;;;;;25.00;22.20;;;22.60;1.00;;;;;;5077253;28;20411;-78
2022/08/17 08:49:33;;;;;;;29.00;21.63;;;22.60;1.00;;;;;;5096151;28;20524;-77
2022/08/17 08:52:00;;;;;;;29.30;23.20;;;22.70;1.00;;;;;;5096109;28;20964;-77
2022/08/17 08:54:44;;;;;;;26.90;22.87;;;22.70;1.00;;;;;;5095797;28;20463;-72
2022/08/17 08:57:24;;;;;;;27.90;21.83;;;22.80;1.00;;;;;;5094997;28;20407;-71
2022/08/17 09:00:14;;;;;;;30.40;25.23;;;22.90;1.00;;;;;;5078077;28;20403;-77
2022/08/17 09:03:06;;;;;;;30.00;24.10;;;22.90;1.00;;;;;;5095817;28;20445;-78
2022/08/17 09:05:56;;;;;;;34.57;25.90;;;22.90;99.90;;;;;;5077688;28;20407;-77
2022/08/17 09:08:45;;;;;;;28.90;24.20;;;22.80;99.90;;;;;;5095272;28;20455;-77
2022/08/17 09:11:39;;;;;;;35.27;25.43;;;22.70;99.90;;;;;;5095704;28;20423;-72
2022/08/17 09:14:11;;;;;;;40.93;27.37;;;22.70;99.90;;;;;;5076891;28;20408;-72
2022/08/17 09:17:01;;;;;;;36.23;25.67;;;22.70;99.90;;;;;;5094872;28;21004;-77
2022/08/17 09:19:54;;;;;;;30.23;23.97;;;22.80;99.90;;;;;;5095539;28;20532;-77
2022/08/17 09:22:36;;;;;;;33.87;26.00;;;22.90;99.90;;;;;;5077603;28;20904;-71
2022/08/17 09:25:27;;;;;;;33.20;21.10;;;22.90;99.90;;;;;;5077495;28;20415;-77
2022/08/17 09:27:59;;;;;;;26.27;20.43;;;23.00;99.90;;;;;;5076387;28;20869;-76
2022/08/17 09:30:35;;;;;;;30.43;20.50;;;23.10;99.90;;;;;;5077025;28;20506;-74
2022/08/17 09:33:05;;;;;;;28.73;21.00;;;23.20;99.90;;;;;;5095155;28;20414;-71
2022/08/17 09:35:45;;;;;;;28.20;20.83;;;23.40;99.90;;;;;;5076694;28;21017;-71
2022/08/17 09:38:35;;;;;;;26.40;21.10;;;23.50;99.90;;;;;;5094614;28;20472;-77
2022/08/17 09:41:34;;;;;;;26.60;20.80;;;23.80;99.90;;;;;;5076873;28;20434;-69
2022/08/17 09:44:18;;;;;;;26.60;19.27;;;24.20;99.90;;;;;;5071723;28;20815;-73
2022/08/17 09:46:54;;;;;;;22.03;18.20;;;24.70;99.90;;;;;;5094459;28;20400;-73
2022/08/17 09:49:38;;;;;;;23.30;17.67;;;24.80;99.90;;;;;;5076391;28;20431;-73
2022/08/17 09:52:13;;;;;;;25.37;16.27;;;24.80;99.90;;;;;;5076580;28;20412;-73
2022/08/17 09:54:40;;;;;;;24.20;16.27;;;24.90;99.90;;;;;;5094905;28;20936;-74
2022/08/17 09:57:06;;;;;;;21.50;18.30;;;24.90;99.90;;;;;;5094181;28;20890;-72
2022/08/17 10:00:14;;;;;;;23.00;16.27;;;25.00;99.90;;;;;;5094779;28;20392;-73
2022/08/17 10:03:19;;;;;;;21.47;16.40;;;25.00;99.90;;;;;;5044684;28;20411;-75
2022/08/17 10:06:05;;;;;;;17.90;16.03;;;25.20;99.90;;;;;;5076111;28;20403;-74
2022/08/17 10:08:43;;;;;;;19.70;15.90;;;25.30;99.90;;;;;;5076224;28;20427;-75
2022/08/17 10:12:14;;;;;;;17.27;12.10;;;25.40;99.90;;;;;;5094633;28;20407;-74
2022/08/17 10:14:38;;;;;;;15.40;13.17;;;25.70;99.90;;;;;;5094283;28;20434;-75
2022/08/17 10:17:19;;;;;;;18.20;14.27;;;25.80;76.80;;;;;;5075628;28;20457;-74
2022/08/17 10:20:16;;;;;;;16.13;12.93;;;25.80;60.30;;;;;;5094479;28;20391;-75
2022/08/17 10:29:08;;;;;;;10.60;9.50;;;26.10;19.40;;;;;;5077744;28;20420;-74
2022/08/17 10:31:41;;;;;;;10.30;8.80;;;26.40;1.50;;;;;;5035779;28;20473;-74
2022/08/17 10:34:31;;;;;;;11.37;9.43;;;26.70;1.00;;;;;;5094135;28;20479;-74
2022/08/17 10:37:19;;;;;;;21.47;10.77;;;26.90;1.00;;;;;;5075136;28;20585;-74
2022/08/17 10:40:16;;;;;;;10.10;8.70;;;27.10;1.00;;;;;;5092518;28;20964;-74
2022/08/17 10:42:55;;;;;;;11.97;10.30;;;27.30;1.00;;;;;;5092856;28;20903;-74
2022/08/17 10:45:28;;;;;;;11.20;9.03;;;27.60;1.00;;;;;;5093427;28;20399;-74
2022/08/17 10:48:19;;;;;;;11.87;10.73;;;27.50;1.00;;;;;;5092634;28;20423;-74
2022/08/17 10:50:54;;;;;;;12.00;10.77;;;27.60;1.00;;;;;;5093344;28;20746;-74
2022/08/17 10:53:32;;;;;;;11.77;9.93;;;27.60;1.00;;;;;;5075875;28;20498;-74
2022/08/17 10:56:13;;;;;;;9.00;8.10;;;27.40;1.00;;;;;;5075196;28;20490;-74
2022/08/17 10:58:46;;;;;;;10.00;8.77;;;27.30;1.00;;;;;;5093681;28;20468;-74
2022/08/17 11:01:12;;;;;;;14.10;9.40;;;27.60;1.00;;;;;;5075698;28;20434;-74
2022/08/17 11:03:56;;;;;;;10.97;9.80;;;28.00;1.00;;;;;;5075020;28;20408;-74
2022/08/17 11:06:37;;;;;;;9.30;8.50;;;28.20;1.00;;;;;;5074746;28;20939;-74
2022/08/17 11:09:10;;;;;;;9.53;8.73;;;28.20;1.00;;;;;;5075395;28;20979;-74
2022/08/17 11:12:06;;;;;;;8.80;8.10;;;28.40;1.00;;;;;;5093469;28;20923;-74
2022/08/17 11:15:07;;;;;;;11.43;9.70;;;28.30;1.00;;;;;;5093591;28;20396;-74
2022/08/17 11:17:56;;;;;;;10.13;8.40;;;28.50;1.00;;;;;;5074692;28;20459;-74
2022/08/17 11:21:21;;;;;;;10.17;9.00;;;28.70;1.00;;;;;;5075625;28;20497;-74
2022/08/17 11:24:13;;;;;;;12.30;9.87;;;28.40;1.00;;;;;;5011090;28;20440;-74
2022/08/17 11:26:45;;;;;;;11.63;10.17;;;28.30;1.00;;;;;;5092714;28;20398;-74
2022/08/17 11:29:22;;;;;;;9.90;9.00;;;28.40;1.00;;;;;;5093202;28;20415;-71
2022/08/17 11:32:02;;;;;;;9.00;7.47;;;28.70;1.00;;;;;;5093157;28;20411;-74
2022/08/17 11:34:30;;;;;;;10.47;9.57;;;28.40;1.00;;;;;;5075183;28;20399;-74
2022/08/17 11:37:34;;;;;;;13.10;10.57;;;28.30;1.00;;;;;;5074362;28;20840;-74
2022/08/17 11:40:23;;;;;;;12.23;9.37;;;27.80;1.00;;;;;;5075351;28;20429;-74
2022/08/17 11:43:18;;;;;;;9.53;8.63;;;27.60;1.00;;;;;;5092677;28;20427;-74
2022/08/17 11:46:22;;;;;;;14.27;10.67;;;27.40;1.00;;;;;;5075601;28;20411;-74
2022/08/17 11:52:00;;;;;;;13.23;11.90;;;27.60;1.00;;;;;;5093158;28;20445;-74
2022/08/17 11:54:29;;;;;;;13.57;12.10;;;27.80;1.00;;;;;;5093132;28;20398;-74
2022/08/17 11:56:57;;;;;;;14.80;13.40;;;28.20;1.00;;;;;;5092398;28;20799;-74
2022/08/17 11:59:32;;;;;;;14.67;13.27;;;28.40;1.00;;;;;;5093323;28;20474;-74
2022/08/17 12:01:59;;;;;;;13.33;11.93;;;28.60;1.00;;;;;;5078411;28;20493;-73
2022/08/17 12:04:33;;;;;;;18.47;12.53;;;28.70;1.00;;;;;;5078849;28;20399;-73
2022/08/17 12:07:21;;;;;;;14.10;12.67;;;28.70;1.00;;;;;;5096181;28;20399;-73
2022/08/17 12:09:50;;;;;;;13.23;11.80;;;28.70;1.00;;;;;;5096911;28;20410;-73
2022/08/17 12:12:19;;;;;;;18.47;13.30;;;28.60;1.00;;;;;;5096881;28;20396;-73
2022/08/17 12:14:56;;;;;;;14.50;11.67;;;28.60;1.00;;;;;;5078561;28;20411;-72
2022/08/17 12:17:25;;;;;;;16.30;12.67;;;28.60;1.00;;;;;;5095439;28;21008;-73
2022/08/17 12:19:54;;;;;;;16.00;13.30;;;28.50;1.00;;;;;;5078497;28;20411;-74
2022/08/17 12:22:32;;;;;;;15.50;13.57;;;28.30;1.00;;;;;;5096601;28;20402;-73
2022/08/17 12:25:19;;;;;;;19.20;12.03;;;28.10;1.00;;;;;;5078464;28;20411;-73
2022/08/17 12:27:47;;;;;;;14.57;13.03;;;27.90;1.00;;;;;;5077562;28;20431;-73
2022/08/17 12:30:17;;;;;;;13.07;11.73;;;27.60;1.00;;;;;;5096626;28;20482;-73
2022/08/17 12:32:46;;;;;;;17.43;12.67;;;27.50;1.00;;;;;;5096393;28;20403;-73
2022/08/17 12:35:34;;;;;;;15.90;13.27;;;27.50;1.00;;;;;;5096253;28;20534;-73
2022/08/17 12:38:03;;;;;;;16.37;12.43;;;27.40;1.00;;;;;;5095194;28;20415;-73
2022/08/17 12:40:31;;;;;;;16.00;13.43;;;27.40;1.00;;;;;;5096385;28;20784;-76
2022/08/17 12:43:03;;;;;;;16.80;14.60;;;27.20;1.00;;;;;;5078122;28;20406;-76
2022/08/17 12:45:32;;;;;;;15.80;13.40;;;27.10;16.50;;;;;;5096051;28;20442;-73
2022/08/17 12:48:06;;;;;;;14.30;12.80;;;26.90;1.00;;;;;;5095384;28;20522;-73
2022/08/17 12:50:38;;;;;;;15.67;13.33;;;26.70;1.00;;;;;;5077911;28;20403;-75
2022/08/17 12:53:14;;;;;;;16.80;14.10;;;26.50;1.00;;;;;;5094721;28;20798;-73
2022/08/17 12:55:41;;;;;;;16.63;14.23;;;26.50;1.00;;;;;;5077089;28;21036;-73
2022/08/17 12:58:13;;;;;;;15.20;13.70;;;26.30;1.00;;;;;;5077018;28;21018;-76
2022/08/17 13:00:47;;;;;;;17.07;15.27;;;26.20;1.00;;;;;;5095832;28;20410;-76
2022/08/17 13:03:18;;;;;;;18.90;15.83;;;26.10;2.00;;;;;;5096007;28;20884;-73
2022/08/17 13:06:05;;;;;;;18.97;13.87;;;25.80;37.50;;;;;;5095490;28;20408;-75
2022/08/17 13:08:41;;;;;;;17.20;15.40;;;25.70;9.90;;;;;;5095824;28;20434;-76
2022/08/17 13:11:17;;;;;;;15.07;13.63;;;25.60;21.50;;;;;;5095129;28;20423;-73
2022/08/17 13:13:50;;;;;;;18.57;13.90;;;25.50;63.60;;;;;;5095543;28;20726;-75
2022/08/17 13:16:20;;;;;;;15.97;13.73;;;25.40;51.00;;;;;;5076680;28;20455;-73
2022/08/17 13:18:54;;;;;;;19.50;15.47;;;25.20;37.80;;;;;;5077170;28;20906;-73
2022/08/17 13:21:22;;;;;;;18.90;16.50;;;25.00;32.30;;;;;;5095545;28;20392;-73
2022/08/17 13:24:01;;;;;;;22.50;17.30;;;24.90;36.20;;;;;;5095455;28;20402;-73
2022/08/17 13:26:35;;;;;;;22.03;17.00;;;24.80;42.10;;;;;;5094838;28;20404;-76
2022/08/17 13:29:06;;;;;;;19.97;14.93;;;24.70;44.20;;;;;;5095202;28;20783;-75
2022/08/17 13:31:40;;;;;;;18.13;16.20;;;24.70;71.00;;;;;;5095346;28;20392;-72
2022/08/17 13:34:22;;;;;;;20.67;17.13;;;24.70;74.70;;;;;;5094741;28;20404;-74
2022/08/17 13:36:50;;;;;;;19.60;17.50;;;24.60;78.80;;;;;;5094608;28;20451;-73
2022/08/17 13:39:17;;;;;;;20.17;18.07;;;24.50;68.80;;;;;;5095150;28;20423;-73
2022/08/17 13:41:45;;;;;;;21.50;18.50;;;24.40;77.70;;;;;;5095001;28;20406;-74
2022/08/17 13:44:33;;;;;;;20.10;17.70;;;24.30;88.00;;;;;;5095000;28;20400;-75
2022/08/17 13:47:01;;;;;;;24.73;17.27;;;24.30;77.40;;;;;;5094362;28;20398;-76
2022/08/17 13:49:28;;;;;;;20.03;17.57;;;24.30;68.50;;;;;;5094911;28;20419;-73
2022/08/17 13:51:54;;;;;;;18.10;15.43;;;24.40;74.30;;;;;;5094829;28;20396;-75
2022/08/17 13:54:33;;;;;;;22.30;18.33;;;24.40;69.30;;;;;;5094412;28;20392;-76
2022/08/17 13:57:17;;;;;;;24.80;19.43;;;24.50;92.50;;;;;;5094215;28;20276;-72
2022/08/17 13:59:46;;;;;;;24.90;20.53;;;24.50;96.50;;;;;;5094725;28;20915;-76
2022/08/17 14:02:15;;;;;;;31.70;22.80;;;24.50;97.40;;;;;;5094593;28;20474;-75
2022/08/17 14:04:42;;;;;;;27.73;22.70;;;24.40;97.30;;;;;;5094834;28;20391;-73
2022/08/17 14:07:11;;;;;;;31.10;26.80;;;24.40;97.30;;;;;;5075896;28;20411;-72
2022/08/17 14:09:45;;;;;;;31.70;25.17;;;24.30;97.40;;;;;;5094145;28;20395;-75
2022/08/17 14:12:16;;;;;;;33.30;23.97;;;24.20;97.30;;;;;;5094520;28;20461;-74
2022/08/17 14:14:43;;;;;;;27.80;22.90;;;24.20;97.30;;;;;;5094590;28;20404;-75
2022/08/17 14:17:10;;;;;;;42.03;25.00;;;24.20;99.90;;;;;;5075484;28;20435;-73
2022/08/17 14:19:38;;;;;;;31.63;25.00;;;24.20;99.90;;;;;;5076156;28;20932;-73
2022/08/17 14:22:07;;;;;;;33.20;28.37;;;24.20;99.90;;;;;;5093628;28;20483;-72
2022/08/17 14:24:39;;;;;;;37.10;28.37;;;24.20;99.90;;;;;;5094318;28;20432;-72
2022/08/17 14:27:07;;;;;;;35.87;27.53;;;24.10;99.90;;;;;;5093407;28;20430;-73
2022/08/17 14:29:33;;;;;;;41.00;27.00;;;24.10;99.90;;;;;;5093808;28;20418;-72
2022/08/17 14:32:23;;;;;;;35.43;28.30;;;24.10;99.90;;;;;;5094002;28;20494;-74
2022/08/17 14:34:49;;;;;;;38.20;28.30;;;24.10;99.90;;;;;;5093939;28;20407;-74
2022/08/17 14:37:20;;;;;;;33.93;24.50;;;24.10;99.90;;;;;;5093495;28;20808;-74